sensor_id;sensor_type;location;lat;lon;timestamp;pressure;altitude;pressure_sealevel;temperature;humidity
62926;BME280;55732;52.248;-0.844;2022-08-14T00:00:41;100302.55;;;22.92;36.63
62926;BME280;55732;52.248;-0.844;2022-08-14T00:03:07;100300.94;;;22.89;36.55
62926;BME280;55732;52.248;-0.844;2022-08-14T00:05:33;100296.41;;;22.87;36.61
62926;BME280;55732;52.248;-0.844;2022-08-14T00:07:58;100294.50;;;22.83;36.67
62926;BME280;55732;52.248;-0.844;2022-08-14T00:10:24;100299.91;;;22.82;36.64
62926;BME280;55732;52.248;-0.844;2022-08-14T00:12:54;100298.98;;;22.79;36.84
62926;BME280;55732;52.248;-0.844;2022-08-14T00:15:27;100295.59;;;22.76;36.92
62926;BME280;55732;52.248;-0.844;2022-08-14T00:17:53;100295.35;;;22.74;37.18
62926;BME280;55732;52.248;-0.844;2022-08-14T00:20:23;100295.10;;;22.72;37.28
62926;BME280;55732;52.248;-0.844;2022-08-14T00:22:49;100293.79;;;22.69;37.50
62926;BME280;55732;52.248;-0.844;2022-08-14T00:25:14;100295.17;;;22.67;37.57
62926;BME280;55732;52.248;-0.844;2022-08-14T00:27:40;100289.58;;;22.65;37.99
62926;BME280;55732;52.248;-0.844;2022-08-14T00:30:08;100287.81;;;22.61;38.11
62926;BME280;55732;52.248;-0.844;2022-08-14T00:32:35;100282.53;;;22.55;38.48
62926;BME280;55732;52.248;-0.844;2022-08-14T00:35:02;100283.87;;;22.51;38.27
62926;BME280;55732;52.248;-0.844;2022-08-14T00:37:29;100284.23;;;22.48;38.29
62926;BME280;55732;52.248;-0.844;2022-08-14T00:39:55;100279.73;;;22.42;38.51
62926;BME280;55732;52.248;-0.844;2022-08-14T00:42:21;100273.80;;;22.35;38.94
62926;BME280;55732;52.248;-0.844;2022-08-14T00:44:47;100269.30;;;22.29;39.22
62926;BME280;55732;52.248;-0.844;2022-08-14T00:47:14;100268.36;;;22.23;39.11
62926;BME280;55732;52.248;-0.844;2022-08-14T00:49:40;100262.95;;;22.17;39.25
62926;BME280;55732;52.248;-0.844;2022-08-14T00:52:07;100261.77;;;22.13;39.23
62926;BME280;55732;52.248;-0.844;2022-08-14T00:54:33;100261.77;;;22.09;39.47
62926;BME280;55732;52.248;-0.844;2022-08-14T00:57:02;100260.14;;;22.06;39.69
62926;BME280;55732;52.248;-0.844;2022-08-14T00:59:27;100260.97;;;22.04;39.84
62926;BME280;55732;52.248;-0.844;2022-08-14T01:01:55;100257.91;;;22.01;40.14
62926;BME280;55732;52.248;-0.844;2022-08-14T01:04:22;100257.59;;;21.96;40.34
62926;BME280;55732;52.248;-0.844;2022-08-14T01:06:49;100254.11;;;21.91;40.71
62926;BME280;55732;52.248;-0.844;2022-08-14T01:09:19;100250.15;;;21.84;41.09
62926;BME280;55732;52.248;-0.844;2022-08-14T01:11:51;100249.67;;;21.83;41.33
62926;BME280;55732;52.248;-0.844;2022-08-14T01:14:19;100247.11;;;21.81;41.60
62926;BME280;55732;52.248;-0.844;2022-08-14T01:16:47;100244.63;;;21.77;41.93
62926;BME280;55732;52.248;-0.844;2022-08-14T01:19:13;100246.05;;;21.71;42.17
62926;BME280;55732;52.248;-0.844;2022-08-14T01:21:58;100244.14;;;21.66;42.50
62926;BME280;55732;52.248;-0.844;2022-08-14T01:24:24;100240.41;;;21.58;42.65
62926;BME280;55732;52.248;-0.844;2022-08-14T01:26:51;100234.91;;;21.54;42.92
62926;BME280;55732;52.248;-0.844;2022-08-14T01:29:18;100237.41;;;21.51;43.11
62926;BME280;55732;52.248;-0.844;2022-08-14T01:31:45;100233.23;;;21.45;43.17
62926;BME280;55732;52.248;-0.844;2022-08-14T01:34:14;100233.30;;;21.44;43.22
62926;BME280;55732;52.248;-0.844;2022-08-14T01:36:40;100231.39;;;21.43;43.43
62926;BME280;55732;52.248;-0.844;2022-08-14T01:39:16;100228.98;;;21.44;43.46
62926;BME280;55732;52.248;-0.844;2022-08-14T01:41:46;100230.03;;;21.45;43.66
62926;BME280;55732;52.248;-0.844;2022-08-14T01:44:23;100229.40;;;21.43;43.58
62926;BME280;55732;52.248;-0.844;2022-08-14T01:46:53;100227.30;;;21.42;43.83
62926;BME280;55732;52.248;-0.844;2022-08-14T01:49:21;100226.45;;;21.41;43.90
62926;BME280;55732;52.248;-0.844;2022-08-14T01:51:47;100224.36;;;21.40;43.92
62926;BME280;55732;52.248;-0.844;2022-08-14T01:54:16;100229.38;;;21.36;43.94
62926;BME280;55732;52.248;-0.844;2022-08-14T01:56:46;100225.82;;;21.33;44.12
62926;BME280;55732;52.248;-0.844;2022-08-14T02:01:42;100227.85;;;21.24;44.58
62926;BME280;55732;52.248;-0.844;2022-08-14T02:04:08;100225.75;;;21.20;44.68
62926;BME280;55732;52.248;-0.844;2022-08-14T02:06:35;100227.17;;;21.16;44.83
62926;BME280;55732;52.248;-0.844;2022-08-14T02:09:04;100227.23;;;21.11;45.01
62926;BME280;55732;52.248;-0.844;2022-08-14T02:11:30;100224.50;;;21.09;45.01
62926;BME280;55732;52.248;-0.844;2022-08-14T02:14:01;100225.79;;;21.08;45.21
62926;BME280;55732;52.248;-0.844;2022-08-14T02:16:31;100228.05;;;21.05;45.25
62926;BME280;55732;52.248;-0.844;2022-08-14T02:19:10;100230.02;;;21.02;45.35
62926;BME280;55732;52.248;-0.844;2022-08-14T02:21:39;100228.91;;;20.96;45.46
62926;BME280;55732;52.248;-0.844;2022-08-14T02:24:05;100227.31;;;20.88;45.73
62926;BME280;55732;52.248;-0.844;2022-08-14T02:26:34;100227.69;;;20.80;45.86
62926;BME280;55732;52.248;-0.844;2022-08-14T02:29:06;100230.64;;;20.75;46.15
62926;BME280;55732;52.248;-0.844;2022-08-14T02:31:36;100228.91;;;20.70;46.26
62926;BME280;55732;52.248;-0.844;2022-08-14T02:34:23;100225.00;;;20.66;46.55
62926;BME280;55732;52.248;-0.844;2022-08-14T02:36:53;100222.86;;;20.63;46.54
62926;BME280;55732;52.248;-0.844;2022-08-14T02:39:23;100222.39;;;20.57;46.59
62926;BME280;55732;52.248;-0.844;2022-08-14T02:41:49;100219.74;;;20.53;46.81
62926;BME280;55732;52.248;-0.844;2022-08-14T02:44:17;100214.63;;;20.48;46.94
62926;BME280;55732;52.248;-0.844;2022-08-14T02:46:45;100208.45;;;20.42;46.85
62926;BME280;55732;52.248;-0.844;2022-08-14T02:49:11;100209.20;;;20.38;47.12
62926;BME280;55732;52.248;-0.844;2022-08-14T02:51:37;100205.75;;;20.34;47.16
62926;BME280;55732;52.248;-0.844;2022-08-14T02:54:08;100198.67;;;20.29;47.21
62926;BME280;55732;52.248;-0.844;2022-08-14T02:56:35;100195.80;;;20.26;47.36
62926;BME280;55732;52.248;-0.844;2022-08-14T02:59:04;100195.16;;;20.24;47.24
62926;BME280;55732;52.248;-0.844;2022-08-14T03:01:32;100191.92;;;20.20;47.40
62926;BME280;55732;52.248;-0.844;2022-08-14T03:03:58;100186.55;;;20.17;47.55
62926;BME280;55732;52.248;-0.844;2022-08-14T03:06:24;100180.40;;;20.11;47.90
62926;BME280;55732;52.248;-0.844;2022-08-14T03:08:52;100182.81;;;20.05;47.83
62926;BME280;55732;52.248;-0.844;2022-08-14T03:11:18;100181.18;;;20.02;47.93
62926;BME280;55732;52.248;-0.844;2022-08-14T03:13:47;100179.00;;;19.99;48.12
62926;BME280;55732;52.248;-0.844;2022-08-14T03:16:18;100173.98;;;19.95;48.16
62926;BME280;55732;52.248;-0.844;2022-08-14T03:18:45;100172.36;;;19.92;48.48
62926;BME280;55732;52.248;-0.844;2022-08-14T03:21:14;100169.48;;;19.89;48.55
62926;BME280;55732;52.248;-0.844;2022-08-14T03:23:42;100171.16;;;19.87;48.70
62926;BME280;55732;52.248;-0.844;2022-08-14T03:26:09;100170.71;;;19.84;48.92
62926;BME280;55732;52.248;-0.844;2022-08-14T03:28:36;100165.86;;;19.81;49.10
62926;BME280;55732;52.248;-0.844;2022-08-14T03:31:06;100163.52;;;19.78;49.27
62926;BME280;55732;52.248;-0.844;2022-08-14T03:33:32;100165.21;;;19.76;49.34
62926;BME280;55732;52.248;-0.844;2022-08-14T03:35:58;100165.18;;;19.73;49.54
62926;BME280;55732;52.248;-0.844;2022-08-14T03:38:25;100161.30;;;19.68;49.71
62926;BME280;55732;52.248;-0.844;2022-08-14T03:40:51;100158.52;;;19.62;49.64
62926;BME280;55732;52.248;-0.844;2022-08-14T03:43:16;100158.47;;;19.56;49.83
62926;BME280;55732;52.248;-0.844;2022-08-14T03:45:41;100154.77;;;19.50;49.94
62926;BME280;55732;52.248;-0.844;2022-08-14T03:48:16;100152.83;;;19.45;50.17
62926;BME280;55732;52.248;-0.844;2022-08-14T03:50:47;100156.55;;;19.42;50.37
62926;BME280;55732;52.248;-0.844;2022-08-14T03:53:14;100153.57;;;19.37;50.38
62926;BME280;55732;52.248;-0.844;2022-08-14T03:55:43;100154.58;;;19.34;50.65
62926;BME280;55732;52.248;-0.844;2022-08-14T03:58:09;100152.51;;;19.33;50.76
62926;BME280;55732;52.248;-0.844;2022-08-14T04:00:35;100150.29;;;19.30;50.94
62926;BME280;55732;52.248;-0.844;2022-08-14T04:03:03;100151.23;;;19.29;50.88
62926;BME280;55732;52.248;-0.844;2022-08-14T04:05:30;100153.42;;;19.28;51.00
62926;BME280;55732;52.248;-0.844;2022-08-14T04:07:56;100155.08;;;19.27;51.02
62926;BME280;55732;52.248;-0.844;2022-08-14T04:10:23;100158.71;;;19.25;51.10
62926;BME280;55732;52.248;-0.844;2022-08-14T04:12:49;100160.59;;;19.23;51.14
62926;BME280;55732;52.248;-0.844;2022-08-14T04:15:15;100161.57;;;19.21;51.32
62926;BME280;55732;52.248;-0.844;2022-08-14T04:17:43;100159.17;;;19.19;51.36
62926;BME280;55732;52.248;-0.844;2022-08-14T04:20:09;100151.24;;;19.17;51.35
62926;BME280;55732;52.248;-0.844;2022-08-14T04:22:37;100145.78;;;19.15;51.54
62926;BME280;55732;52.248;-0.844;2022-08-14T04:25:06;100141.89;;;19.10;51.73
62926;BME280;55732;52.248;-0.844;2022-08-14T04:27:32;100137.05;;;19.07;51.70
62926;BME280;55732;52.248;-0.844;2022-08-14T04:29:59;100137.14;;;19.04;51.80
62926;BME280;55732;52.248;-0.844;2022-08-14T04:32:24;100132.26;;;19.01;52.03
62926;BME280;55732;52.248;-0.844;2022-08-14T04:34:52;100132.54;;;18.99;51.96
62926;BME280;55732;52.248;-0.844;2022-08-14T04:37:23;100130.85;;;18.97;52.17
62926;BME280;55732;52.248;-0.844;2022-08-14T04:40:08;100123.70;;;18.89;52.19
62926;BME280;55732;52.248;-0.844;2022-08-14T04:42:53;100134.79;;;18.93;52.33
62926;BME280;55732;52.248;-0.844;2022-08-14T04:45:38;100129.69;;;18.91;52.46
62926;BME280;55732;52.248;-0.844;2022-08-14T04:50:44;100128.04;;;18.92;52.41
62926;BME280;55732;52.248;-0.844;2022-08-14T04:53:17;100124.90;;;18.90;52.24
62926;BME280;55732;52.248;-0.844;2022-08-14T04:55:44;100129.61;;;18.89;52.36
62926;BME280;55732;52.248;-0.844;2022-08-14T04:58:32;100121.82;;;18.87;52.53
62926;BME280;55732;52.248;-0.844;2022-08-14T05:01:00;100119.48;;;18.84;52.88
62926;BME280;55732;52.248;-0.844;2022-08-14T05:03:29;100119.71;;;18.82;52.86
62926;BME280;55732;52.248;-0.844;2022-08-14T05:05:58;100118.02;;;18.80;53.05
62926;BME280;55732;52.248;-0.844;2022-08-14T05:08:24;100119.08;;;18.81;52.91
62926;BME280;55732;52.248;-0.844;2022-08-14T05:10:55;100122.74;;;18.83;53.10
62926;BME280;55732;52.248;-0.844;2022-08-14T05:13:24;100121.73;;;18.85;52.98
62926;BME280;55732;52.248;-0.844;2022-08-14T05:15:51;100126.73;;;18.89;53.04
62926;BME280;55732;52.248;-0.844;2022-08-14T05:18:20;100123.84;;;18.95;52.95
62926;BME280;55732;52.248;-0.844;2022-08-14T05:20:48;100131.92;;;19.01;53.13
62926;BME280;55732;52.248;-0.844;2022-08-14T05:23:19;100124.21;;;19.06;53.12
62926;BME280;55732;52.248;-0.844;2022-08-14T05:25:47;100123.11;;;19.15;53.03
62926;BME280;55732;52.248;-0.844;2022-08-14T05:28:19;100120.66;;;19.26;52.89
62926;BME280;55732;52.248;-0.844;2022-08-14T05:30:51;100116.42;;;19.37;52.95
62926;BME280;55732;52.248;-0.844;2022-08-14T05:33:19;100113.98;;;19.48;52.90
62926;BME280;55732;52.248;-0.844;2022-08-14T05:35:47;100109.60;;;19.70;52.55
62926;BME280;55732;52.248;-0.844;2022-08-14T05:38:15;100111.78;;;20.10;51.87
62926;BME280;55732;52.248;-0.844;2022-08-14T05:40:44;100109.23;;;20.22;51.41
62926;BME280;55732;52.248;-0.844;2022-08-14T05:43:09;100105.87;;;20.26;51.44
62926;BME280;55732;52.248;-0.844;2022-08-14T05:45:36;100104.91;;;20.34;51.33
62926;BME280;55732;52.248;-0.844;2022-08-14T05:48:02;100101.33;;;20.56;50.93
62926;BME280;55732;52.248;-0.844;2022-08-14T05:50:30;100095.78;;;20.84;50.62
62926;BME280;55732;52.248;-0.844;2022-08-14T05:52:56;100091.84;;;21.16;50.34
62926;BME280;55732;52.248;-0.844;2022-08-14T05:55:23;100086.15;;;21.84;49.30
62926;BME280;55732;52.248;-0.844;2022-08-14T06:00:17;100081.89;;;23.04;47.11
62926;BME280;55732;52.248;-0.844;2022-08-14T06:02:43;100079.88;;;23.31;46.53
62926;BME280;55732;52.248;-0.844;2022-08-14T06:05:08;100085.46;;;23.71;45.83
62926;BME280;55732;52.248;-0.844;2022-08-14T06:07:35;100079.98;;;24.39;44.47
62926;BME280;55732;52.248;-0.844;2022-08-14T06:10:02;100078.98;;;24.36;44.42
62926;BME280;55732;52.248;-0.844;2022-08-14T06:12:28;100084.48;;;24.09;44.74
62926;BME280;55732;52.248;-0.844;2022-08-14T06:14:53;100082.46;;;23.88;44.86
62926;BME280;55732;52.248;-0.844;2022-08-14T06:17:19;100080.29;;;23.65;45.11
62926;BME280;55732;52.248;-0.844;2022-08-14T06:19:44;100075.04;;;23.45;45.68
62926;BME280;55732;52.248;-0.844;2022-08-14T06:22:09;100068.10;;;23.33;45.82
62926;BME280;55732;52.248;-0.844;2022-08-14T06:24:35;100065.02;;;23.16;45.95
62926;BME280;55732;52.248;-0.844;2022-08-14T06:27:03;100068.99;;;23.01;46.32
62926;BME280;55732;52.248;-0.844;2022-08-14T06:29:30;100072.20;;;22.95;46.55
62926;BME280;55732;52.248;-0.844;2022-08-14T06:31:55;100073.45;;;22.92;46.72
62926;BME280;55732;52.248;-0.844;2022-08-14T06:34:21;100074.54;;;22.95;46.82
62926;BME280;55732;52.248;-0.844;2022-08-14T06:36:47;100075.11;;;23.00;46.88
62926;BME280;55732;52.248;-0.844;2022-08-14T06:39:12;100081.58;;;23.03;46.66
62926;BME280;55732;52.248;-0.844;2022-08-14T06:41:38;100083.58;;;23.03;46.68
62926;BME280;55732;52.248;-0.844;2022-08-14T06:44:07;100081.71;;;23.07;46.73
62926;BME280;55732;52.248;-0.844;2022-08-14T06:46:32;100085.17;;;23.12;46.63
62926;BME280;55732;52.248;-0.844;2022-08-14T06:48:58;100088.85;;;23.11;46.60
62926;BME280;55732;52.248;-0.844;2022-08-14T06:51:23;100088.50;;;23.08;46.58
62926;BME280;55732;52.248;-0.844;2022-08-14T06:53:49;100089.27;;;23.01;46.58
62926;BME280;55732;52.248;-0.844;2022-08-14T06:56:14;100087.16;;;22.94;46.74
62926;BME280;55732;52.248;-0.844;2022-08-14T06:58:40;100083.95;;;22.91;47.13
62926;BME280;55732;52.248;-0.844;2022-08-14T07:01:06;100079.92;;;22.89;47.18
62926;BME280;55732;52.248;-0.844;2022-08-14T07:03:50;100079.09;;;22.94;47.20
62926;BME280;55732;52.248;-0.844;2022-08-14T07:06:34;100078.27;;;23.02;47.09
62926;BME280;55732;52.248;-0.844;2022-08-14T07:08:59;100078.09;;;23.02;47.03
62926;BME280;55732;52.248;-0.844;2022-08-14T07:11:25;100079.36;;;23.01;47.02
62926;BME280;55732;52.248;-0.844;2022-08-14T07:13:52;100084.31;;;23.06;47.15
62926;BME280;55732;52.248;-0.844;2022-08-14T07:16:17;100085.75;;;23.15;47.14
62926;BME280;55732;52.248;-0.844;2022-08-14T07:18:43;100086.55;;;23.25;46.70
62926;BME280;55732;52.248;-0.844;2022-08-14T07:21:10;100086.29;;;23.35;46.79
62926;BME280;55732;52.248;-0.844;2022-08-14T07:23:36;100089.48;;;23.50;46.33
62926;BME280;55732;52.248;-0.844;2022-08-14T07:26:03;100088.98;;;23.61;46.14
62926;BME280;55732;52.248;-0.844;2022-08-14T07:28:34;100089.53;;;23.70;46.20
62926;BME280;55732;52.248;-0.844;2022-08-14T07:31:02;100090.64;;;23.81;45.81
62926;BME280;55732;52.248;-0.844;2022-08-14T07:33:31;100091.69;;;23.92;45.54
62926;BME280;55732;52.248;-0.844;2022-08-14T07:36:04;100092.25;;;24.06;45.30
62926;BME280;55732;52.248;-0.844;2022-08-14T07:38:30;100093.12;;;24.11;44.94
62926;BME280;55732;52.248;-0.844;2022-08-14T07:40:55;100087.71;;;24.20;44.90
62926;BME280;55732;52.248;-0.844;2022-08-14T07:43:22;100082.87;;;24.45;44.51
62926;BME280;55732;52.248;-0.844;2022-08-14T07:45:48;100086.65;;;24.77;43.93
62926;BME280;55732;52.248;-0.844;2022-08-14T07:48:14;100079.98;;;25.34;42.81
62926;BME280;55732;52.248;-0.844;2022-08-14T07:50:39;100080.47;;;25.81;41.98
62926;BME280;55732;52.248;-0.844;2022-08-14T07:53:05;100075.89;;;26.09;41.01
62926;BME280;55732;52.248;-0.844;2022-08-14T07:55:31;100070.05;;;26.58;40.43
62926;BME280;55732;52.248;-0.844;2022-08-14T07:57:57;100073.52;;;27.73;38.68
62926;BME280;55732;52.248;-0.844;2022-08-14T08:00:24;100063.81;;;29.16;36.63
62926;BME280;55732;52.248;-0.844;2022-08-14T08:02:51;100058.63;;;31.39;34.03
62926;BME280;55732;52.248;-0.844;2022-08-14T08:05:19;100054.88;;;33.26;31.43
62926;BME280;55732;52.248;-0.844;2022-08-14T08:07:46;100047.16;;;34.75;28.66
62926;BME280;55732;52.248;-0.844;2022-08-14T08:10:21;100046.60;;;36.03;27.22
62926;BME280;55732;52.248;-0.844;2022-08-14T08:13:17;100046.91;;;37.57;25.08
62926;BME280;55732;52.248;-0.844;2022-08-14T08:15:46;100042.02;;;38.69;23.34
62926;BME280;55732;52.248;-0.844;2022-08-14T08:18:14;100037.63;;;39.11;22.46
62926;BME280;55732;52.248;-0.844;2022-08-14T08:20:45;100040.11;;;38.93;22.65
62926;BME280;55732;52.248;-0.844;2022-08-14T08:23:11;100039.70;;;39.01;22.49
62926;BME280;55732;52.248;-0.844;2022-08-14T08:25:40;100038.27;;;38.99;22.45
62926;BME280;55732;52.248;-0.844;2022-08-14T08:28:10;100033.80;;;39.23;22.26
62926;BME280;55732;52.248;-0.844;2022-08-14T08:30:38;100031.56;;;40.20;21.46
62926;BME280;55732;52.248;-0.844;2022-08-14T08:33:06;100025.08;;;41.26;20.13
62926;BME280;55732;52.248;-0.844;2022-08-14T08:35:35;100024.48;;;42.38;19.95
62926;BME280;55732;52.248;-0.844;2022-08-14T08:38:04;100019.69;;;43.64;18.32
62926;BME280;55732;52.248;-0.844;2022-08-14T08:43:05;100029.63;;;44.62;17.49
62926;BME280;55732;52.248;-0.844;2022-08-14T08:45:33;100024.56;;;45.12;16.80
62926;BME280;55732;52.248;-0.844;2022-08-14T08:48:00;100015.21;;;45.44;15.97
62926;BME280;55732;52.248;-0.844;2022-08-14T08:50:37;100017.58;;;45.56;15.75
62926;BME280;55732;52.248;-0.844;2022-08-14T08:53:08;100015.94;;;45.67;15.32
62926;BME280;55732;52.248;-0.844;2022-08-14T08:58:23;100007.02;;;44.83;15.44
62926;BME280;55732;52.248;-0.844;2022-08-14T09:00:56;99997.58;;;45.05;15.47
62926;BME280;55732;52.248;-0.844;2022-08-14T09:03:26;99992.84;;;45.63;15.36
62926;BME280;55732;52.248;-0.844;2022-08-14T09:05:55;99991.13;;;45.89;15.13
62926;BME280;55732;52.248;-0.844;2022-08-14T09:10:53;99986.98;;;46.74;14.29
62926;BME280;55732;52.248;-0.844;2022-08-14T09:13:19;99981.98;;;47.31;13.81
62926;BME280;55732;52.248;-0.844;2022-08-14T09:15:47;99978.77;;;47.23;13.76
62926;BME280;55732;52.248;-0.844;2022-08-14T09:18:16;99973.52;;;47.21;13.91
62926;BME280;55732;52.248;-0.844;2022-08-14T09:20:44;99965.20;;;47.05;13.54
62926;BME280;55732;52.248;-0.844;2022-08-14T09:23:12;99959.13;;;46.64;13.83
62926;BME280;55732;52.248;-0.844;2022-08-14T09:25:40;99960.59;;;46.64;13.64
62926;BME280;55732;52.248;-0.844;2022-08-14T09:28:07;99958.22;;;46.17;13.71
62926;BME280;55732;52.248;-0.844;2022-08-14T09:30:36;99952.27;;;46.12;13.96
62926;BME280;55732;52.248;-0.844;2022-08-14T09:44:02;99950.36;;;46.90;13.44
62926;BME280;55732;52.248;-0.844;2022-08-14T09:46:31;99947.85;;;46.82;12.99
62926;BME280;55732;52.248;-0.844;2022-08-14T09:49:00;99946.55;;;46.75;13.01
62926;BME280;55732;52.248;-0.844;2022-08-14T09:51:28;99946.92;;;46.53;13.04
62926;BME280;55732;52.248;-0.844;2022-08-14T09:54:04;99947.27;;;46.36;13.02
62926;BME280;55732;52.248;-0.844;2022-08-14T09:56:42;99948.20;;;46.17;13.11
62926;BME280;55732;52.248;-0.844;2022-08-14T09:59:11;99945.42;;;46.03;12.91
62926;BME280;55732;52.248;-0.844;2022-08-14T10:01:38;99940.04;;;45.59;13.02
62926;BME280;55732;52.248;-0.844;2022-08-14T10:04:19;99938.55;;;45.71;13.15
62926;BME280;55732;52.248;-0.844;2022-08-14T10:06:45;99927.98;;;45.45;13.30
62926;BME280;55732;52.248;-0.844;2022-08-14T10:09:11;99926.80;;;45.27;13.54
62926;BME280;55732;52.248;-0.844;2022-08-14T10:11:40;99920.20;;;45.34;13.40
62926;BME280;55732;52.248;-0.844;2022-08-14T10:14:17;99917.13;;;45.20;13.14
62926;BME280;55732;52.248;-0.844;2022-08-14T10:16:45;99911.27;;;44.99;13.40
62926;BME280;55732;52.248;-0.844;2022-08-14T10:19:13;99915.10;;;45.19;13.57
62926;BME280;55732;52.248;-0.844;2022-08-14T10:21:42;99915.05;;;45.17;13.06
62926;BME280;55732;52.248;-0.844;2022-08-14T10:24:22;99911.52;;;44.98;13.29
62926;BME280;55732;52.248;-0.844;2022-08-14T10:26:59;99909.47;;;45.08;13.35
62926;BME280;55732;52.248;-0.844;2022-08-14T10:29:34;99909.10;;;44.97;13.23
62926;BME280;55732;52.248;-0.844;2022-08-14T10:32:02;99907.52;;;44.50;13.34
62926;BME280;55732;52.248;-0.844;2022-08-14T10:34:33;99904.73;;;44.15;13.48
62926;BME280;55732;52.248;-0.844;2022-08-14T10:37:06;99900.73;;;43.83;13.64
62926;BME280;55732;52.248;-0.844;2022-08-14T10:39:32;99901.04;;;43.11;13.88
62926;BME280;55732;52.248;-0.844;2022-08-14T10:42:09;99890.94;;;42.09;14.52
62926;BME280;55732;52.248;-0.844;2022-08-14T10:44:39;99895.58;;;40.91;15.32
62926;BME280;55732;52.248;-0.844;2022-08-14T10:47:07;99890.90;;;39.65;15.98
62926;BME280;55732;52.248;-0.844;2022-08-14T10:49:38;99885.02;;;38.64;16.60
62926;BME280;55732;52.248;-0.844;2022-08-14T10:52:10;99884.89;;;37.77;17.23
62926;BME280;55732;52.248;-0.844;2022-08-14T10:54:45;99878.20;;;37.03;18.03
62926;BME280;55732;52.248;-0.844;2022-08-14T10:57:24;99870.80;;;36.39;18.72
62926;BME280;55732;52.248;-0.844;2022-08-14T10:59:53;99865.11;;;36.08;18.97
62926;BME280;55732;52.248;-0.844;2022-08-14T11:07:29;99861.33;;;35.35;19.16
62926;BME280;55732;52.248;-0.844;2022-08-14T11:09:56;99863.54;;;35.15;19.47
62926;BME280;55732;52.248;-0.844;2022-08-14T11:12:24;99858.45;;;35.00;19.64
62926;BME280;55732;52.248;-0.844;2022-08-14T11:14:56;99848.11;;;34.82;19.66
62926;BME280;55732;52.248;-0.844;2022-08-14T11:17:31;99851.20;;;34.74;19.78
62926;BME280;55732;52.248;-0.844;2022-08-14T11:19:59;99851.87;;;34.51;19.92
62926;BME280;55732;52.248;-0.844;2022-08-14T11:22:27;99847.69;;;34.27;20.16
62926;BME280;55732;52.248;-0.844;2022-08-14T11:25:05;99840.77;;;34.14;20.30
62926;BME280;55732;52.248;-0.844;2022-08-14T11:27:32;99844.86;;;34.04;20.31
62926;BME280;55732;52.248;-0.844;2022-08-14T11:30:02;99836.95;;;33.90;20.86
62926;BME280;55732;52.248;-0.844;2022-08-14T11:32:29;99841.05;;;33.83;20.57
62926;BME280;55732;52.248;-0.844;2022-08-14T11:35:01;99841.42;;;33.65;20.35
62926;BME280;55732;52.248;-0.844;2022-08-14T11:37:28;99836.63;;;33.64;20.43
62926;BME280;55732;52.248;-0.844;2022-08-14T11:39:55;99834.96;;;33.78;20.26
62926;BME280;55732;52.248;-0.844;2022-08-14T11:42:23;99827.39;;;33.97;20.19
62926;BME280;55732;52.248;-0.844;2022-08-14T11:44:50;99827.64;;;34.13;20.08
62926;BME280;55732;52.248;-0.844;2022-08-14T11:47:17;99826.71;;;34.21;19.52
62926;BME280;55732;52.248;-0.844;2022-08-14T11:49:46;99824.67;;;34.32;19.74
62926;BME280;55732;52.248;-0.844;2022-08-14T11:52:15;99824.17;;;34.32;19.68
62926;BME280;55732;52.248;-0.844;2022-08-14T11:54:44;99824.27;;;34.33;19.54
62926;BME280;55732;52.248;-0.844;2022-08-14T11:57:15;99826.90;;;34.35;19.29
62926;BME280;55732;52.248;-0.844;2022-08-14T11:59:41;99816.50;;;34.48;19.36
62926;BME280;55732;52.248;-0.844;2022-08-14T12:02:11;99816.67;;;34.45;18.99
62926;BME280;55732;52.248;-0.844;2022-08-14T12:04:50;99815.83;;;34.25;19.06
62926;BME280;55732;52.248;-0.844;2022-08-14T12:07:16;99802.96;;;34.19;19.47
62926;BME280;55732;52.248;-0.844;2022-08-14T12:09:44;99796.10;;;34.31;19.57
62926;BME280;55732;52.248;-0.844;2022-08-14T12:12:18;99794.19;;;34.48;19.46
62926;BME280;55732;52.248;-0.844;2022-08-14T12:15:03;99792.77;;;34.67;19.55
62926;BME280;55732;52.248;-0.844;2022-08-14T12:17:30;99790.23;;;34.83;19.56
62926;BME280;55732;52.248;-0.844;2022-08-14T12:20:03;99785.59;;;34.78;19.27
62926;BME280;55732;52.248;-0.844;2022-08-14T12:22:38;99783.13;;;34.79;19.31
62926;BME280;55732;52.248;-0.844;2022-08-14T12:25:07;99781.80;;;34.83;19.02
62926;BME280;55732;52.248;-0.844;2022-08-14T12:27:41;99780.19;;;34.74;19.14
62926;BME280;55732;52.248;-0.844;2022-08-14T12:30:12;99774.46;;;34.72;18.78
62926;BME280;55732;52.248;-0.844;2022-08-14T12:32:40;99771.57;;;34.76;18.62
62926;BME280;55732;52.248;-0.844;2022-08-14T12:35:06;99771.39;;;34.75;18.75
62926;BME280;55732;52.248;-0.844;2022-08-14T12:37:32;99761.02;;;34.77;18.90
62926;BME280;55732;52.248;-0.844;2022-08-14T12:40:08;99754.66;;;34.93;18.94
62926;BME280;55732;52.248;-0.844;2022-08-14T12:42:34;99755.91;;;35.13;18.93
62926;BME280;55732;52.248;-0.844;2022-08-14T12:45:00;99756.63;;;35.01;18.79
62926;BME280;55732;52.248;-0.844;2022-08-14T12:47:26;99755.12;;;34.81;18.88
62926;BME280;55732;52.248;-0.844;2022-08-14T12:49:56;99756.50;;;34.66;19.02
62926;BME280;55732;52.248;-0.844;2022-08-14T12:52:40;99753.95;;;34.56;19.12
62926;BME280;55732;52.248;-0.844;2022-08-14T12:55:08;99750.47;;;34.59;19.17
62926;BME280;55732;52.248;-0.844;2022-08-14T12:57:40;99741.64;;;34.68;19.26
62926;BME280;55732;52.248;-0.844;2022-08-14T13:00:14;99737.81;;;34.81;19.12
62926;BME280;55732;52.248;-0.844;2022-08-14T13:02:42;99719.25;;;34.89;19.37
62926;BME280;55732;52.248;-0.844;2022-08-14T13:05:11;99711.79;;;34.99;19.12
62926;BME280;55732;52.248;-0.844;2022-08-14T13:07:39;99703.95;;;35.05;19.06
62926;BME280;55732;52.248;-0.844;2022-08-14T13:10:10;99707.98;;;35.16;18.87
62926;BME280;55732;52.248;-0.844;2022-08-14T13:12:37;99716.88;;;35.29;18.76
62926;BME280;55732;52.248;-0.844;2022-08-14T13:15:09;99719.27;;;35.41;18.59
62926;BME280;55732;52.248;-0.844;2022-08-14T13:20:09;99720.23;;;35.12;18.41
62926;BME280;55732;52.248;-0.844;2022-08-14T13:22:37;99711.03;;;34.92;18.70
62926;BME280;55732;52.248;-0.844;2022-08-14T13:25:06;99711.00;;;34.85;18.63